createdAt,value
2018-12-04T00:00:09.178Z,131.27
2018-12-04T00:00:40.390Z,134.15
2018-12-04T00:01:11.501Z,131.00
2018-12-04T00:01:42.630Z,134.05
2018-12-04T00:02:13.737Z,130.87
2018-12-04T00:02:44.851Z,133.47
2018-12-04T00:03:16.006Z,132.32
2018-12-04T00:03:47.151Z,134.12
2018-12-04T00:04:18.413Z,132.52
2018-12-04T00:04:49.526Z,130.27
2018-12-04T00:05:20.654Z,129.15
2018-12-04T00:05:51.764Z,131.67
2018-12-04T00:06:22.878Z,129.68
2018-12-04T00:06:54.008Z,132.67
2018-12-04T00:07:25.120Z,131.97
2018-12-04T00:07:56.327Z,136.85
2018-12-04T00:08:27.534Z,134.47
2018-12-04T00:08:58.659Z,130.87
2018-12-04T00:09:29.772Z,133.00
2018-12-04T00:10:00.925Z,129.00
2018-12-04T00:10:32.113Z,133.37
2018-12-04T00:11:03.205Z,132.80
2018-12-04T00:11:34.313Z,138.25
2018-12-04T00:12:05.460Z,138.45
2018-12-04T00:12:36.579Z,137.60
2018-12-04T00:13:07.719Z,138.12
2018-12-04T00:13:38.821Z,140.07
2018-12-04T00:14:09.933Z,139.03
2018-12-04T00:14:41.033Z,142.13
2018-12-04T00:15:12.138Z,141.65
2018-12-04T00:15:43.246Z,141.80
2018-12-04T00:16:14.339Z,140.90
2018-12-04T00:16:45.476Z,143.72
2018-12-04T00:17:16.662Z,142.50
2018-12-04T00:17:47.778Z,141.75
2018-12-04T00:18:18.895Z,133.25
2018-12-04T00:18:50.010Z,134.63
2018-12-04T00:19:21.120Z,144.00
2018-12-04T00:19:52.236Z,141.57
2018-12-04T00:20:23.468Z,140.68
2018-12-04T00:20:54.630Z,138.18
2018-12-04T00:21:25.745Z,136.92
2018-12-04T00:21:56.847Z,133.97
2018-12-04T00:22:27.989Z,139.03
2018-12-04T00:22:59.108Z,132.30
2018-12-04T00:23:30.232Z,132.30
2018-12-04T00:24:01.336Z,134.93
2018-12-04T00:24:32.449Z,134.85
2018-12-04T00:25:03.558Z,136.47
2018-12-04T00:25:34.675Z,133.90
2018-12-04T00:26:05.798Z,134.05
2018-12-04T00:26:36.967Z,141.57
2018-12-04T00:27:08.117Z,140.88
2018-12-04T00:27:39.236Z,139.68
2018-12-04T00:28:10.349Z,133.52
2018-12-04T00:28:41.499Z,134.22
2018-12-04T00:29:12.649Z,133.45
2018-12-04T00:29:43.764Z,135.32
2018-12-04T00:30:14.882Z,137.22
2018-12-04T00:30:46.036Z,133.97
2018-12-04T00:31:17.157Z,137.25
2018-12-04T00:31:48.272Z,135.48
2018-12-04T00:32:19.399Z,130.25
2018-12-04T00:32:50.513Z,132.37
2018-12-04T00:33:21.626Z,139.00
2018-12-04T00:33:52.732Z,136.10
2018-12-04T00:34:23.891Z,133.78
2018-12-04T00:34:55.017Z,133.65
2018-12-04T00:35:26.137Z,137.47
2018-12-04T00:35:57.247Z,132.20
2018-12-04T00:36:28.360Z,130.03
2018-12-04T00:36:59.594Z,137.88
2018-12-04T00:37:30.748Z,137.60
2018-12-04T00:38:01.874Z,136.52
2018-12-04T00:38:33.021Z,124.92
2018-12-04T00:39:04.148Z,124.60
2018-12-04T00:39:35.272Z,130.47
2018-12-04T00:40:06.449Z,132.82
2018-12-04T00:40:37.575Z,134.65
2018-12-04T00:41:08.686Z,134.82
2018-12-04T00:41:39.810Z,136.03
2018-12-04T00:42:10.918Z,138.45
2018-12-04T00:42:42.051Z,136.20
2018-12-04T00:43:13.173Z,136.60
2018-12-04T00:43:44.282Z,132.63
2018-12-04T00:44:15.421Z,133.82
2018-12-04T00:44:46.537Z,137.65
2018-12-04T00:45:17.692Z,136.00
2018-12-04T00:45:48.812Z,138.18
2018-12-04T00:46:19.929Z,134.22
2018-12-04T00:46:51.063Z,137.32
2018-12-04T00:47:22.196Z,130.85
2018-12-04T00:47:53.326Z,132.85
2018-12-04T00:48:24.456Z,139.03
2018-12-04T00:48:55.586Z,138.95
2018-12-04T00:49:26.700Z,144.30
2018-12-04T00:49:57.820Z,139.10
2018-12-04T00:50:29.022Z,141.30
2018-12-04T00:51:00.141Z,137.20
2018-12-04T00:51:31.259Z,146.07
2018-12-04T00:52:02.371Z,138.30
2018-12-04T00:52:33.490Z,135.97
2018-12-04T00:53:04.626Z,141.22
2018-12-04T00:53:35.744Z,134.87
2018-12-04T00:54:06.860Z,136.35
2018-12-04T00:54:37.990Z,142.45
2018-12-04T00:55:09.130Z,132.03
2018-12-04T00:55:40.271Z,134.40
2018-12-04T00:56:11.388Z,130.85
2018-12-04T00:56:42.492Z,133.32
2018-12-04T00:57:13.592Z,136.37
2018-12-04T00:57:44.719Z,131.10
2018-12-04T00:58:15.838Z,134.47
2018-12-04T00:58:46.947Z,136.77
2018-12-04T00:59:18.061Z,141.97
2018-12-04T00:59:49.321Z,136.65
2018-12-04T01:00:20.472Z,139.00
2018-12-04T01:00:51.595Z,135.88
2018-12-04T01:01:23.012Z,134.60
2018-12-04T01:01:54.143Z,138.57
2018-12-04T01:02:25.286Z,139.32
2018-12-04T01:02:56.541Z,141.50
2018-12-04T01:03:27.681Z,140.85
2018-12-04T01:03:58.824Z,147.60
2018-12-04T01:04:29.946Z,146.05
2018-12-04T01:05:01.053Z,142.98
2018-12-04T01:05:32.182Z,142.98
2018-12-04T01:06:03.352Z,146.10
2018-12-04T01:06:34.479Z,145.20
2018-12-04T01:07:05.602Z,147.60
2018-12-04T01:07:36.727Z,141.90
2018-12-04T01:08:08.063Z,142.43
2018-12-04T01:08:39.179Z,129.38
2018-12-04T01:09:10.296Z,138.82
2018-12-04T01:09:41.445Z,133.03
2018-12-04T01:10:12.555Z,138.30
2018-12-04T01:10:43.664Z,135.97
2018-12-04T01:11:14.821Z,131.82
2018-12-04T01:11:45.952Z,129.40
2018-12-04T01:12:17.092Z,126.02
2018-12-04T01:12:48.217Z,139.07
2018-12-04T01:13:19.330Z,128.15
2018-12-04T01:13:50.444Z,132.10
2018-12-04T01:14:21.562Z,126.75
2018-12-04T01:14:52.698Z,134.67
2018-12-04T01:15:23.940Z,126.80
2018-12-04T01:15:55.091Z,116.65
2018-12-04T01:16:26.855Z,127.05
2018-12-04T01:16:58.070Z,140.05
2018-12-04T01:17:29.190Z,142.82
2018-12-04T01:18:00.346Z,118.45
2018-12-04T01:18:31.471Z,132.52
2018-12-04T01:19:02.589Z,118.57
2018-12-04T01:19:33.749Z,125.02
2018-12-04T01:20:04.877Z,118.45
2018-12-04T01:20:35.992Z,125.05
2018-12-04T01:21:07.101Z,123.82
2018-12-04T01:21:38.225Z,120.22
2018-12-04T01:22:09.362Z,122.55
2018-12-04T01:22:40.518Z,118.28
2018-12-04T01:23:11.633Z,120.25
2018-12-04T01:23:42.776Z,120.90
2018-12-04T01:24:13.907Z,122.45
2018-12-04T01:24:45.041Z,121.65
2018-12-04T01:25:16.178Z,125.00
2018-12-04T01:25:47.310Z,122.28
2018-12-04T01:26:18.441Z,122.40
2018-12-04T01:26:49.548Z,127.85
2018-12-04T01:27:20.662Z,127.95
2018-12-04T01:27:51.847Z,127.30
2018-12-04T01:28:22.962Z,125.90
2018-12-04T01:28:54.089Z,118.97
2018-12-04T01:29:25.189Z,124.22
2018-12-04T01:29:56.299Z,137.68
2018-12-04T01:30:27.409Z,134.78
2018-12-04T01:30:58.513Z,120.57
2018-12-04T01:31:29.644Z,130.00
2018-12-04T01:32:00.773Z,120.22
2018-12-04T01:32:31.885Z,126.33
2018-12-04T01:33:03.041Z,128.93
2018-12-04T01:33:34.163Z,140.00
2018-12-04T01:34:05.274Z,139.88
2018-12-04T01:34:36.388Z,146.07
2018-12-04T01:35:07.516Z,144.07
2018-12-04T01:35:38.664Z,142.43
2018-12-04T01:36:09.818Z,140.10
2018-12-04T01:36:40.945Z,126.85
2018-12-04T01:37:12.072Z,120.28
2018-12-04T01:37:43.228Z,137.32
2018-12-04T01:38:14.341Z,129.07
2018-12-04T01:38:45.462Z,137.43
2018-12-04T01:39:16.606Z,144.68
2018-12-04T01:39:47.726Z,162.97
2018-12-04T01:40:18.836Z,151.72
2018-12-04T01:40:49.959Z,144.60
2018-12-04T01:41:21.160Z,137.28
2018-12-04T01:41:53.073Z,136.77
2018-12-04T01:42:24.792Z,132.27
2018-12-04T01:42:55.908Z,143.62
2018-12-04T01:43:27.351Z,129.07
2018-12-04T01:43:58.515Z,135.20
2018-12-04T01:44:29.631Z,140.73
2018-12-04T01:45:00.735Z,144.13
2018-12-04T01:45:32.157Z,139.03
2018-12-04T01:46:03.319Z,137.28
2018-12-04T01:46:34.683Z,135.63
2018-12-04T01:47:05.785Z,141.90
2018-12-04T01:47:36.897Z,139.22
2018-12-04T01:48:08.012Z,136.70
2018-12-04T01:48:39.137Z,141.00
2018-12-04T01:49:10.255Z,138.37
2018-12-04T01:49:41.367Z,145.05
2018-12-04T01:50:12.482Z,141.18
2018-12-04T01:50:43.762Z,138.03
2018-12-04T01:51:14.889Z,144.07
2018-12-04T01:51:46.005Z,136.35
2018-12-04T01:52:17.124Z,142.55
2018-12-04T01:52:48.278Z,144.90
2018-12-04T01:53:19.406Z,140.65
2018-12-04T01:53:50.527Z,143.17
2018-12-04T01:54:21.658Z,154.23
2018-12-04T01:54:52.781Z,157.52
2018-12-04T01:55:23.913Z,156.70
2018-12-04T01:55:55.069Z,151.20
2018-12-04T01:56:26.183Z,147.80
2018-12-04T01:56:57.376Z,148.60
2018-12-04T01:57:28.494Z,143.60
2018-12-04T01:57:59.656Z,161.50
2018-12-04T01:58:30.784Z,140.90
2018-12-04T01:59:01.883Z,145.17
2018-12-04T01:59:33.008Z,144.70
2018-12-04T02:00:04.122Z,148.85
2018-12-04T02:00:35.253Z,150.70
2018-12-04T02:01:06.405Z,148.68
2018-12-04T02:01:37.528Z,150.22
2018-12-04T02:02:08.640Z,159.12
2018-12-04T02:02:39.758Z,150.62
2018-12-04T02:03:10.875Z,153.45
2018-12-04T02:03:41.996Z,148.70
2018-12-04T02:04:13.157Z,154.47
2018-12-04T02:04:44.273Z,156.40
2018-12-04T02:05:15.393Z,155.35
2018-12-04T02:05:46.514Z,154.97
2018-12-04T02:06:17.680Z,157.85
2018-12-04T02:06:48.833Z,160.35
2018-12-04T02:07:19.949Z,153.80
2018-12-04T02:07:51.113Z,158.52
2018-12-04T02:08:22.539Z,151.72
2018-12-04T02:08:53.660Z,160.18
2018-12-04T02:09:24.790Z,155.63
2018-12-04T02:09:55.949Z,156.55
2018-12-04T02:10:27.066Z,154.95
2018-12-04T02:10:58.221Z,154.42
2018-12-04T02:11:29.334Z,156.30
2018-12-04T02:12:00.456Z,157.82
2018-12-04T02:12:31.569Z,157.67
2018-12-04T02:13:02.682Z,161.00
2018-12-04T02:13:33.792Z,160.32
2018-12-04T02:14:04.906Z,155.43
2018-12-04T02:14:36.067Z,156.15
2018-12-04T02:15:07.949Z,152.55
2018-12-04T02:15:39.084Z,149.05
2018-12-04T02:16:10.214Z,147.57
2018-12-04T02:16:41.325Z,141.60
2018-12-04T02:17:12.454Z,145.47
2018-12-04T02:17:43.560Z,142.53
2018-12-04T02:18:14.682Z,140.60
2018-12-04T02:18:45.806Z,142.05
2018-12-04T02:19:16.923Z,144.00
2018-12-04T02:19:48.062Z,142.00
2018-12-04T02:20:19.170Z,142.93
2018-12-04T02:20:50.295Z,142.30
2018-12-04T02:21:21.452Z,144.93
2018-12-04T02:21:52.564Z,142.37
2018-12-04T02:22:23.678Z,138.37
2018-12-04T02:22:54.785Z,139.92
2018-12-04T02:23:25.900Z,139.82
2018-12-04T02:23:57.016Z,137.00
2018-12-04T02:24:28.153Z,132.00
2018-12-04T02:24:59.277Z,134.10
2018-12-04T02:25:30.432Z,130.78
2018-12-04T02:26:01.753Z,132.45
2018-12-04T02:26:32.956Z,131.95
2018-12-04T02:27:04.064Z,129.50
2018-12-04T02:27:35.216Z,130.65
2018-12-04T02:28:06.340Z,129.63
2018-12-04T02:28:37.463Z,130.57
2018-12-04T02:29:08.610Z,126.97
2018-12-04T02:29:39.732Z,129.27
2018-12-04T02:30:10.865Z,128.35
2018-12-04T02:30:41.988Z,131.87
2018-12-04T02:31:13.145Z,128.95
2018-12-04T02:31:44.265Z,126.70
2018-12-04T02:32:15.377Z,130.20
2018-12-04T02:32:46.532Z,126.92
2018-12-04T02:33:17.649Z,127.53
2018-12-04T02:33:48.765Z,126.72
2018-12-04T02:34:19.884Z,123.45
2018-12-04T02:34:51.062Z,127.95
2018-12-04T02:35:22.184Z,122.78
2018-12-04T02:35:53.303Z,124.10
2018-12-04T02:36:24.429Z,120.72
2018-12-04T02:36:55.534Z,121.82
2018-12-04T02:37:26.661Z,129.18
2018-12-04T02:37:57.767Z,131.00
2018-12-04T02:38:28.889Z,128.38
2018-12-04T02:39:00.019Z,124.27
2018-12-04T02:39:31.154Z,125.05
2018-12-04T02:40:02.312Z,124.33
2018-12-04T02:40:33.439Z,121.80
2018-12-04T02:41:04.565Z,120.10
2018-12-04T02:41:35.682Z,117.75
2018-12-04T02:42:06.802Z,119.30
2018-12-04T02:42:38.007Z,126.30
2018-12-04T02:43:09.136Z,125.65
2018-12-04T02:43:40.261Z,124.62
2018-12-04T02:44:11.586Z,119.47
2018-12-04T02:44:42.706Z,119.00
2018-12-04T02:45:13.835Z,124.35
2018-12-04T02:45:44.954Z,119.22
2018-12-04T02:46:16.079Z,123.05
2018-12-04T02:46:47.209Z,115.28
2018-12-04T02:47:18.329Z,112.10
2018-12-04T02:47:49.483Z,114.28
2018-12-04T02:48:20.635Z,117.15
2018-12-04T02:48:51.744Z,116.65
2018-12-04T02:49:22.851Z,113.88
2018-12-04T02:49:53.975Z,111.20
2018-12-04T02:50:25.138Z,115.92
2018-12-04T02:50:56.272Z,113.35
2018-12-04T02:51:27.384Z,113.52
2018-12-04T02:51:58.502Z,112.55
2018-12-04T02:52:29.643Z,111.03
2018-12-04T02:53:00.797Z,117.30
2018-12-04T02:53:31.942Z,115.50
2018-12-04T02:54:03.049Z,113.90
2018-12-04T02:54:34.157Z,118.33
2018-12-04T02:55:05.278Z,113.42
2018-12-04T02:55:36.435Z,113.17
2018-12-04T02:56:07.569Z,112.47
2018-12-04T02:56:38.721Z,113.03
2018-12-04T02:57:09.877Z,112.55
2018-12-04T02:57:40.972Z,109.55
2018-12-04T02:58:12.090Z,112.40
2018-12-04T02:58:43.187Z,109.85
2018-12-04T02:59:14.297Z,113.92
2018-12-04T02:59:45.439Z,112.57
2018-12-04T03:00:16.550Z,112.40
2018-12-04T03:00:47.659Z,112.62
2018-12-04T03:01:18.773Z,111.12
2018-12-04T03:01:49.942Z,114.52
2018-12-04T03:02:21.065Z,113.28
2018-12-04T03:02:52.176Z,112.80
2018-12-04T03:03:23.331Z,108.85
2018-12-04T03:03:54.455Z,113.08
2018-12-04T03:04:25.610Z,114.88
2018-12-04T03:04:56.724Z,110.10
2018-12-04T03:05:27.836Z,113.32
2018-12-04T03:05:58.947Z,111.20
2018-12-04T03:06:30.063Z,111.88
2018-12-04T03:07:01.190Z,109.90
2018-12-04T03:07:32.319Z,111.57
2018-12-04T03:08:03.428Z,110.30
2018-12-04T03:08:34.538Z,111.68
2018-12-04T03:09:05.663Z,109.90
2018-12-04T03:09:36.800Z,116.50
2018-12-04T03:10:07.962Z,110.92
2018-12-04T03:10:39.066Z,116.10
2018-12-04T03:11:10.178Z,117.80
2018-12-04T03:11:41.296Z,117.30
2018-12-04T03:12:12.405Z,118.72
2018-12-04T03:12:43.555Z,113.55
2018-12-04T03:13:14.660Z,115.72
2018-12-04T03:13:45.765Z,113.47
2018-12-04T03:14:16.893Z,119.15
2018-12-04T03:14:48.056Z,116.53
2018-12-04T03:15:19.167Z,114.77
2018-12-04T03:15:50.271Z,113.17
2018-12-04T03:16:21.376Z,119.30
2018-12-04T03:16:52.479Z,115.62
2018-12-04T03:17:23.597Z,115.75
2018-12-04T03:17:54.709Z,117.08
2018-12-04T03:18:25.826Z,115.67
2018-12-04T03:18:56.941Z,113.90
2018-12-04T03:19:28.086Z,119.50
2018-12-04T03:19:59.271Z,125.15
2018-12-04T03:20:30.382Z,124.47
2018-12-04T03:21:01.497Z,119.70
2018-12-04T03:21:32.597Z,120.42
2018-12-04T03:22:03.699Z,120.22
2018-12-04T03:22:34.836Z,117.67
2018-12-04T03:23:05.944Z,116.67
2018-12-04T03:23:37.071Z,123.20
2018-12-04T03:24:08.188Z,121.55
2018-12-04T03:24:39.344Z,120.92
2018-12-04T03:25:10.458Z,123.87
2018-12-04T03:25:41.569Z,128.25
2018-12-04T03:26:12.669Z,126.33
2018-12-04T03:26:43.841Z,122.10
2018-12-04T03:27:14.958Z,120.72
2018-12-04T03:27:46.075Z,119.57
2018-12-04T03:28:17.194Z,118.65
2018-12-04T03:28:48.311Z,110.15
2018-12-04T03:29:19.431Z,107.78
2018-12-04T03:29:50.556Z,106.30
2018-12-04T03:30:21.731Z,107.35
2018-12-04T03:30:52.958Z,113.20
2018-12-04T03:31:24.233Z,114.03
2018-12-04T03:31:55.379Z,116.82
2018-12-04T03:32:26.670Z,119.28
2018-12-04T03:32:57.800Z,119.30
2018-12-04T03:33:28.943Z,120.17
2018-12-04T03:34:00.075Z,123.65
2018-12-04T03:34:31.202Z,119.62
2018-12-04T03:35:02.375Z,117.37
2018-12-04T03:35:33.491Z,118.08
2018-12-04T03:36:04.607Z,119.35
2018-12-04T03:36:35.735Z,114.85
2018-12-04T03:37:06.852Z,118.22
2018-12-04T03:37:38.290Z,113.62
2018-12-04T03:38:09.415Z,121.28
2018-12-04T03:38:40.525Z,119.72
2018-12-04T03:39:11.636Z,120.00
2018-12-04T03:39:42.758Z,120.13
2018-12-04T03:40:13.923Z,122.90
2018-12-04T03:40:45.037Z,113.57
2018-12-04T03:41:16.161Z,116.62
2018-12-04T03:41:47.260Z,118.82
2018-12-04T03:42:18.376Z,118.95
2018-12-04T03:42:49.498Z,112.88
2018-12-04T03:43:20.611Z,117.45
2018-12-04T03:43:51.732Z,114.75
2018-12-04T03:44:22.857Z,119.77
2018-12-04T03:44:54.080Z,115.57
2018-12-04T03:45:25.242Z,113.97
2018-12-04T03:45:57.530Z,112.50
2018-12-04T03:46:28.655Z,112.68
2018-12-04T03:46:59.804Z,115.47
2018-12-04T03:47:30.926Z,115.35
2018-12-04T03:48:02.035Z,117.17
2018-12-04T03:48:33.156Z,119.17
2018-12-04T03:49:04.269Z,120.65
2018-12-04T03:49:35.384Z,124.60
2018-12-04T03:50:06.503Z,122.20
2018-12-04T03:50:37.675Z,124.10
2018-12-04T03:51:08.788Z,119.25
2018-12-04T03:51:39.937Z,118.97
2018-12-04T03:52:11.259Z,120.20
2018-12-04T03:52:42.375Z,121.37
2018-12-04T03:53:13.489Z,119.17
2018-12-04T03:53:44.608Z,122.17
2018-12-04T03:54:15.714Z,113.57
2018-12-04T03:54:46.828Z,120.33
2018-12-04T03:55:17.934Z,120.40
2018-12-04T03:55:49.055Z,118.97
2018-12-04T03:56:20.224Z,115.50
2018-12-04T03:56:51.334Z,119.62
2018-12-04T03:57:22.451Z,126.15
2018-12-04T03:57:54.363Z,128.93
2018-12-04T03:58:26.760Z,128.23
2018-12-04T03:58:58.042Z,128.20
2018-12-04T03:59:29.205Z,126.22
2018-12-04T04:00:00.325Z,128.78
2018-12-04T04:00:31.544Z,127.95
2018-12-04T04:01:02.688Z,125.30
2018-12-04T04:01:33.867Z,127.95
2018-12-04T04:02:04.992Z,127.75
2018-12-04T04:02:36.175Z,127.62
2018-12-04T04:03:07.321Z,126.67
2018-12-04T04:03:38.443Z,129.32
2018-12-04T04:04:09.563Z,130.65
2018-12-04T04:04:40.677Z,128.38
2018-12-04T04:05:11.801Z,127.12
2018-12-04T04:05:42.935Z,131.12
2018-12-04T04:06:14.056Z,124.70
2018-12-04T04:06:45.179Z,128.27
2018-12-04T04:07:16.306Z,127.92
2018-12-04T04:07:47.465Z,138.40
2018-12-04T04:08:18.572Z,137.72
2018-12-04T04:08:49.705Z,131.45
2018-12-04T04:09:20.839Z,131.70
2018-12-04T04:09:52.006Z,127.78
2018-12-04T04:10:23.209Z,123.72
2018-12-04T04:10:54.337Z,121.97
2018-12-04T04:11:25.506Z,121.97
2018-12-04T04:11:56.661Z,122.42
2018-12-04T04:12:27.778Z,123.33
2018-12-04T04:12:58.934Z,122.55
2018-12-04T04:13:30.048Z,124.72
2018-12-04T04:14:01.173Z,120.10
2018-12-04T04:14:32.337Z,124.75
2018-12-04T04:15:03.441Z,117.93
2018-12-04T04:15:34.557Z,121.77
2018-12-04T04:16:05.676Z,124.85
2018-12-04T04:16:36.918Z,124.82
2018-12-04T04:17:08.032Z,125.30
2018-12-04T04:17:39.154Z,126.95
2018-12-04T04:18:10.273Z,126.07
2018-12-04T04:18:41.391Z,124.35
2018-12-04T04:19:12.505Z,123.55
2018-12-04T04:19:43.667Z,124.78
2018-12-04T04:20:14.783Z,123.80
2018-12-04T04:20:45.913Z,123.80
2018-12-04T04:21:17.029Z,122.67
2018-12-04T04:21:48.147Z,124.20
2018-12-04T04:22:19.316Z,126.12
2018-12-04T04:22:50.442Z,120.57
2018-12-04T04:23:21.564Z,120.70
2018-12-04T04:23:52.678Z,126.78
2018-12-04T04:24:23.781Z,120.62
2018-12-04T04:24:54.930Z,119.85
2018-12-04T04:25:26.058Z,115.80
2018-12-04T04:25:57.218Z,117.00
2018-12-04T04:26:28.339Z,116.45
2018-12-04T04:26:59.458Z,117.17
2018-12-04T04:27:30.709Z,116.65
2018-12-04T04:28:01.837Z,116.55
2018-12-04T04:28:32.962Z,119.93
2018-12-04T04:29:04.071Z,120.62
2018-12-04T04:29:35.185Z,115.67
2018-12-04T04:30:06.296Z,122.80
2018-12-04T04:30:37.436Z,118.40
2018-12-04T04:31:08.703Z,119.22
2018-12-04T04:31:39.935Z,114.15
2018-12-04T04:32:11.054Z,119.53
2018-12-04T04:32:42.214Z,114.60
2018-12-04T04:33:13.326Z,108.00
2018-12-04T04:33:44.439Z,106.12
2018-12-04T04:34:15.709Z,105.10
2018-12-04T04:34:46.829Z,109.78
2018-12-04T04:35:17.945Z,100.27
2018-12-04T04:35:49.061Z,104.50
2018-12-04T04:36:20.196Z,97.82
2018-12-04T04:36:51.321Z,105.95
2018-12-04T04:37:22.437Z,103.78
2018-12-04T04:37:53.588Z,106.47
2018-12-04T04:38:24.706Z,100.62
2018-12-04T04:38:55.815Z,101.95
2018-12-04T04:39:26.937Z,99.50
2018-12-04T04:39:58.063Z,98.70
2018-12-04T04:40:29.182Z,100.67
2018-12-04T04:41:00.304Z,97.45
2018-12-04T04:41:31.414Z,96.25
2018-12-04T04:42:02.516Z,91.25
2018-12-04T04:42:33.761Z,91.60
2018-12-04T04:43:04.878Z,87.05
2018-12-04T04:43:35.987Z,90.83
2018-12-04T04:44:07.091Z,93.62
2018-12-04T04:44:38.193Z,93.25
2018-12-04T04:45:09.313Z,91.97
2018-12-04T04:45:40.452Z,91.45
2018-12-04T04:46:11.582Z,88.25
2018-12-04T04:46:42.690Z,89.00
2018-12-04T04:47:13.828Z,90.40
2018-12-04T04:47:44.989Z,91.92
2018-12-04T04:48:16.128Z,94.72
2018-12-04T04:48:47.246Z,92.50
2018-12-04T04:49:18.368Z,90.17
2018-12-04T04:49:49.477Z,89.97
2018-12-04T04:50:20.653Z,87.25
2018-12-04T04:50:51.784Z,86.50
2018-12-04T04:51:22.900Z,82.85
2018-12-04T04:51:54.021Z,82.37
2018-12-04T04:52:25.147Z,74.62
2018-12-04T04:52:56.298Z,79.35
2018-12-04T04:53:27.405Z,76.90
2018-12-04T04:53:58.532Z,73.55
2018-12-04T04:54:29.636Z,76.22
2018-12-04T04:55:00.746Z,78.02
2018-12-04T04:55:31.861Z,77.95
2018-12-04T04:56:02.974Z,62.93
2018-12-04T04:56:34.089Z,67.45
2018-12-04T04:57:05.211Z,64.60
2018-12-04T04:57:36.321Z,59.60
2018-12-04T04:58:07.480Z,67.62
2018-12-04T04:58:38.604Z,67.85
2018-12-04T04:59:09.715Z,69.95
2018-12-04T04:59:40.864Z,75.57
2018-12-04T05:00:11.976Z,82.55
2018-12-04T05:00:43.105Z,79.60
2018-12-04T05:01:14.225Z,72.67
2018-12-04T05:01:45.340Z,71.77
2018-12-04T05:02:16.453Z,80.50
2018-12-04T05:02:47.573Z,76.33
2018-12-04T05:03:18.760Z,77.03
2018-12-04T05:03:49.880Z,78.45
2018-12-04T05:04:21.030Z,72.10
2018-12-04T05:04:52.148Z,73.80
2018-12-04T05:05:23.273Z,79.50
2018-12-04T05:05:54.391Z,83.55
2018-12-04T05:06:25.523Z,79.80
2018-12-04T05:06:56.645Z,82.15
2018-12-04T05:07:27.756Z,88.33
2018-12-04T05:07:58.905Z,83.22
2018-12-04T05:08:30.021Z,79.75
2018-12-04T05:09:01.134Z,80.83
2018-12-04T05:09:32.240Z,79.65
2018-12-04T05:10:03.354Z,75.05
2018-12-04T05:10:34.462Z,73.87
2018-12-04T05:11:05.583Z,76.15
2018-12-04T05:11:36.692Z,76.05
2018-12-04T05:12:07.812Z,75.80
2018-12-04T05:12:38.913Z,78.17
2018-12-04T05:13:10.069Z,73.95
2018-12-04T05:13:41.198Z,78.92
2018-12-04T05:14:12.319Z,74.72
2018-12-04T05:14:43.437Z,78.22
2018-12-04T05:15:14.542Z,74.42
2018-12-04T05:15:45.681Z,76.35
2018-12-04T05:16:16.829Z,78.15
2018-12-04T05:16:47.945Z,75.00
2018-12-04T05:17:19.053Z,77.22
2018-12-04T05:17:50.169Z,73.02
2018-12-04T05:18:21.298Z,75.62
2018-12-04T05:18:52.462Z,76.33
2018-12-04T05:19:23.695Z,76.55
2018-12-04T05:19:54.810Z,72.97
2018-12-04T05:20:25.913Z,77.85
2018-12-04T05:20:57.045Z,77.08
2018-12-04T05:21:28.203Z,74.60
2018-12-04T05:21:59.316Z,74.80
2018-12-04T05:22:30.416Z,74.85
2018-12-04T05:23:01.529Z,75.37
2018-12-04T05:23:32.655Z,76.10
2018-12-04T05:24:03.769Z,75.22
2018-12-04T05:24:34.884Z,74.70
2018-12-04T05:25:06.046Z,75.20
2018-12-04T05:25:37.158Z,73.30
2018-12-04T05:26:08.272Z,73.55
2018-12-04T05:26:39.392Z,72.30
2018-12-04T05:27:10.517Z,77.85
2018-12-04T05:27:41.629Z,80.42
2018-12-04T05:28:12.752Z,75.65
2018-12-04T05:28:43.860Z,78.78
2018-12-04T05:29:14.982Z,76.37
2018-12-04T05:29:46.101Z,78.10
2018-12-04T05:30:17.247Z,79.17
2018-12-04T05:30:48.364Z,78.70
2018-12-04T05:31:19.476Z,80.05
2018-12-04T05:31:50.594Z,82.40
2018-12-04T05:32:21.727Z,85.00
2018-12-04T05:32:52.838Z,81.40
2018-12-04T05:33:23.957Z,74.25
2018-12-04T05:33:55.077Z,74.45
2018-12-04T05:34:26.225Z,75.60
2018-12-04T05:34:57.350Z,73.92
2018-12-04T05:35:28.476Z,76.55
2018-12-04T05:35:59.585Z,68.80
2018-12-04T05:36:30.694Z,71.50
2018-12-04T05:37:01.848Z,69.50
2018-12-04T05:37:32.975Z,74.10
2018-12-04T05:38:04.104Z,72.87
2018-12-04T05:38:35.216Z,78.60
2018-12-04T05:39:06.377Z,76.22
2018-12-04T05:39:37.573Z,72.60
2018-12-04T05:40:08.695Z,71.25
2018-12-04T05:40:39.843Z,70.08
2018-12-04T05:41:10.993Z,71.05
2018-12-04T05:41:42.161Z,69.58
2018-12-04T05:42:13.354Z,68.47
2018-12-04T05:42:44.464Z,67.92
2018-12-04T05:43:15.574Z,70.40
2018-12-04T05:43:46.700Z,68.25
2018-12-04T05:44:17.861Z,67.40
2018-12-04T05:44:49.007Z,67.08
2018-12-04T05:45:20.123Z,64.60
2018-12-04T05:45:51.242Z,70.05
2018-12-04T05:46:22.396Z,69.35
2018-12-04T05:46:53.513Z,68.42
2018-12-04T05:47:24.635Z,68.60
2018-12-04T05:47:55.754Z,68.05
2018-12-04T05:48:26.858Z,66.87
2018-12-04T05:48:57.969Z,63.75
2018-12-04T05:49:29.138Z,62.67
2018-12-04T05:50:01.264Z,64.58
2018-12-04T05:50:32.521Z,64.97
2018-12-04T05:51:03.689Z,65.45
2018-12-04T05:51:34.830Z,63.17
2018-12-04T05:52:05.946Z,63.15
2018-12-04T05:52:37.041Z,64.20
2018-12-04T05:53:08.141Z,69.47
2018-12-04T05:53:39.254Z,71.72
2018-12-04T05:54:10.374Z,70.65
2018-12-04T05:54:41.485Z,74.45
2018-12-04T05:55:12.584Z,68.15
2018-12-04T05:55:43.688Z,68.00
2018-12-04T05:56:14.834Z,69.37
2018-12-04T05:56:46.015Z,71.37
2018-12-04T05:57:17.206Z,74.37
2018-12-04T05:57:48.327Z,71.90
2018-12-04T05:58:19.462Z,74.97
2018-12-04T05:58:50.598Z,78.95
2018-12-04T05:59:21.704Z,79.62
2018-12-04T05:59:52.820Z,80.85
2018-12-04T06:00:23.932Z,81.45
2018-12-04T06:00:55.037Z,85.12
2018-12-04T06:01:26.145Z,91.15
2018-12-04T06:01:57.297Z,89.05
2018-12-04T06:02:28.441Z,87.50
2018-12-04T06:02:59.548Z,87.60
2018-12-04T06:03:30.641Z,87.67
2018-12-04T06:04:01.763Z,78.67
2018-12-04T06:04:32.867Z,77.90
2018-12-04T06:05:03.976Z,77.70
2018-12-04T06:05:35.105Z,79.60
2018-12-04T06:06:06.217Z,79.40
2018-12-04T06:06:37.329Z,78.47
2018-12-04T06:07:08.445Z,80.00
2018-12-04T06:07:39.605Z,82.17
2018-12-04T06:08:10.709Z,83.95
2018-12-04T06:08:41.826Z,90.20
2018-12-04T06:09:12.936Z,93.30
2018-12-04T06:09:44.062Z,91.05
2018-12-04T06:10:15.178Z,90.85
2018-12-04T06:10:46.283Z,105.70
2018-12-04T06:11:17.393Z,105.30
2018-12-04T06:11:48.513Z,95.80
2018-12-04T06:12:19.636Z,94.95
2018-12-04T06:12:50.798Z,90.28
2018-12-04T06:13:21.926Z,83.55
2018-12-04T06:13:53.032Z,83.22
2018-12-04T06:14:24.145Z,80.20
2018-12-04T06:14:55.264Z,80.28
2018-12-04T06:15:26.392Z,80.25
2018-12-04T06:15:57.519Z,84.37
2018-12-04T06:16:28.630Z,83.10
2018-12-04T06:16:59.745Z,82.90
2018-12-04T06:17:30.888Z,83.40
2018-12-04T06:18:01.988Z,84.05
2018-12-04T06:18:33.096Z,81.53
2018-12-04T06:19:04.201Z,82.60
2018-12-04T06:19:35.309Z,83.35
2018-12-04T06:20:06.417Z,83.30
2018-12-04T06:20:37.521Z,84.17
2018-12-04T06:21:08.677Z,84.42
2018-12-04T06:21:39.785Z,82.95
2018-12-04T06:22:10.884Z,82.20
2018-12-04T06:22:42.003Z,79.45
2018-12-04T06:23:13.110Z,80.42
2018-12-04T06:23:44.210Z,78.25
2018-12-04T06:24:15.322Z,81.72
2018-12-04T06:24:46.425Z,80.65
2018-12-04T06:25:17.545Z,79.80
2018-12-04T06:25:48.648Z,88.27
2018-12-04T06:26:19.788Z,94.07
2018-12-04T06:26:50.912Z,105.95
2018-12-04T06:27:22.009Z,97.05
2018-12-04T06:27:53.125Z,82.37
2018-12-04T06:28:24.230Z,93.90
2018-12-04T06:28:55.350Z,93.78
2018-12-04T06:29:26.463Z,95.92
2018-12-04T06:29:57.615Z,98.20
2018-12-04T06:30:28.717Z,93.78
2018-12-04T06:30:59.829Z,96.95
2018-12-04T06:31:30.958Z,97.08
2018-12-04T06:32:02.064Z,92.57